createdAt,value
2022-11-07T00:00:01.224Z,5.63
2022-11-07T00:02:04.028Z,6.75
2022-11-07T00:04:05.614Z,6.30
2022-11-07T00:06:11.566Z,8.27
2022-11-07T00:08:23.727Z,7.10
2022-11-07T00:12:49.045Z,5.60
2022-11-07T00:15:02.386Z,10.85
2022-11-07T00:17:14.569Z,5.95
2022-11-07T00:19:27.709Z,4.90
2022-11-07T00:21:42.249Z,5.80
2022-11-07T00:23:54.169Z,4.40
2022-11-07T00:26:06.832Z,5.15
2022-11-07T00:28:15.581Z,5.75
2022-11-07T00:30:27.702Z,5.60
2022-11-07T00:32:40.838Z,6.07
2022-11-07T00:34:54.710Z,6.43
2022-11-07T00:36:57.914Z,5.95
2022-11-07T00:38:59.621Z,6.43
2022-11-07T00:41:02.683Z,4.47
2022-11-07T00:43:04.197Z,4.65
2022-11-07T00:45:06.524Z,4.47
2022-11-07T02:50:57.455Z,7.55
2022-11-07T02:52:59.046Z,7.03
2022-11-07T02:55:00.438Z,6.50
2022-11-07T02:57:01.910Z,6.68
2022-11-07T02:59:03.667Z,6.22
2022-11-07T03:01:08.509Z,7.25
2022-11-07T03:03:10.228Z,7.65
2022-11-07T03:05:11.905Z,7.00
2022-11-07T03:07:13.277Z,6.40
2022-11-07T03:09:14.833Z,6.05
2022-11-07T03:11:21.675Z,7.05
2022-11-07T03:13:36.949Z,5.28
2022-11-07T03:16:00.223Z,6.20
2022-11-07T03:18:27.468Z,6.93
2022-11-07T03:20:48.347Z,7.35
2022-11-07T03:23:12.792Z,6.50
2022-11-07T03:25:34.010Z,6.20
2022-11-07T03:28:05.137Z,8.88
2022-11-07T03:30:19.127Z,7.10
2022-11-07T03:32:32.783Z,8.48
2022-11-07T03:34:55.457Z,6.18
2022-11-07T03:37:18.383Z,6.55
2022-11-07T03:39:34.007Z,6.60
2022-11-07T03:41:38.833Z,7.25
2022-11-07T03:43:40.281Z,6.22
2022-11-07T03:45:41.930Z,8.13
2022-11-07T03:47:44.397Z,6.22
2022-11-07T03:49:45.963Z,7.75
2022-11-07T03:51:47.470Z,6.50
2022-11-07T03:53:49.210Z,10.57
2022-11-07T03:55:50.637Z,6.18
2022-11-07T03:57:52.057Z,7.60
2022-11-07T03:59:53.516Z,6.93
2022-11-07T04:01:55.065Z,8.13
2022-11-07T04:03:56.856Z,6.18
2022-11-07T04:05:58.886Z,6.57
2022-11-07T04:08:00.387Z,5.93
2022-11-07T04:10:01.817Z,7.22
2022-11-07T04:12:21.760Z,7.00
2022-11-07T04:14:41.807Z,8.02
2022-11-07T04:17:02.170Z,7.40
2022-11-07T04:19:03.947Z,6.63
2022-11-07T04:21:05.386Z,6.85
2022-11-07T04:23:06.895Z,8.20
2022-11-07T04:25:08.889Z,5.55
2022-11-07T04:27:29.644Z,6.85
2022-11-07T04:29:31.197Z,8.80
2022-11-07T04:31:32.661Z,6.47
2022-11-07T04:33:34.141Z,7.10
2022-11-07T04:35:35.684Z,7.30
2022-11-07T04:37:37.137Z,8.43
2022-11-07T04:39:39.012Z,6.90
2022-11-07T04:41:40.423Z,6.22
2022-11-07T04:43:41.873Z,7.05
2022-11-07T04:45:43.546Z,7.72
2022-11-07T04:47:45.349Z,7.13
2022-11-07T04:49:46.857Z,6.70
2022-11-07T04:51:49.100Z,8.38
2022-11-07T04:53:50.565Z,6.45
2022-11-07T04:55:52.019Z,5.22
2022-11-07T04:57:53.612Z,9.30
2022-11-07T04:59:55.186Z,6.88
2022-11-07T05:01:57.092Z,7.07
2022-11-07T05:03:58.951Z,5.85
2022-11-07T05:06:00.545Z,6.95
2022-11-07T05:08:02.009Z,6.10
2022-11-07T05:10:09.519Z,8.93
2022-11-07T05:12:13.508Z,7.95
2022-11-07T05:14:15.088Z,5.90
2022-11-07T05:16:19.676Z,6.65
2022-11-07T05:18:25.049Z,5.78
2022-11-07T05:20:30.876Z,5.55
2022-11-07T05:22:55.195Z,5.57
2022-11-07T05:24:57.985Z,7.05
2022-11-07T05:26:59.867Z,5.13
2022-11-07T05:29:01.374Z,5.32
2022-11-07T05:31:03.831Z,6.88
2022-11-07T05:33:05.282Z,5.97
2022-11-07T05:35:07.511Z,5.43
2022-11-07T05:37:09.589Z,6.57
2022-11-07T05:39:10.997Z,6.80
2022-11-07T05:41:13.354Z,6.00
2022-11-07T05:43:15.212Z,5.15
2022-11-07T05:45:17.442Z,6.00
2022-11-07T05:47:19.141Z,6.13
2022-11-07T05:49:20.548Z,5.75
2022-11-07T05:51:22.018Z,7.32
2022-11-07T05:53:25.444Z,6.78
2022-11-07T05:55:27.492Z,6.90
2022-11-07T05:57:29.395Z,8.55
2022-11-07T05:59:30.852Z,9.25
2022-11-07T06:01:32.427Z,7.18
2022-11-07T06:03:34.252Z,5.30
2022-11-07T06:05:37.154Z,6.18
2022-11-07T06:07:39.478Z,6.55
2022-11-07T06:09:41.105Z,6.90
2022-11-07T06:11:42.590Z,5.95
2022-11-07T06:13:45.531Z,6.43
2022-11-07T06:15:47.450Z,8.53
2022-11-07T06:17:54.278Z,6.78
2022-11-07T06:20:06.170Z,5.18
2022-11-07T06:22:17.272Z,6.28
2022-11-07T06:24:28.116Z,5.35
2022-11-07T06:26:35.736Z,6.78
2022-11-07T06:28:43.641Z,5.10
2022-11-07T06:30:53.588Z,6.05
2022-11-07T06:33:06.322Z,5.78
2022-11-07T06:35:18.047Z,6.90
2022-11-07T06:37:31.264Z,5.78
2022-11-07T06:39:41.822Z,5.47
2022-11-07T06:41:53.220Z,5.28
2022-11-07T06:44:05.193Z,7.93
2022-11-07T06:46:19.451Z,7.10
2022-11-07T06:48:21.908Z,6.07
2022-11-07T06:50:23.303Z,7.78
2022-11-07T06:52:24.842Z,7.38
2022-11-07T06:54:26.404Z,7.60
2022-11-07T06:56:27.905Z,5.97
2022-11-07T06:58:29.398Z,7.35
2022-11-07T07:00:31.981Z,7.10
2022-11-07T07:02:59.402Z,7.22
2022-11-07T07:04:54.858Z,7.93
2022-11-07T07:06:56.461Z,8.98
2022-11-07T07:08:58.312Z,10.02
2022-11-07T07:11:03.908Z,11.25
2022-11-07T07:13:05.376Z,5.82
2022-11-07T07:15:07.464Z,13.05
2022-11-07T07:17:10.815Z,7.70
2022-11-07T07:19:12.965Z,8.40
2022-11-07T07:21:15.177Z,6.22
2022-11-07T07:23:17.904Z,7.15
2022-11-07T07:25:19.908Z,6.25
2022-11-07T07:27:21.404Z,7.05
2022-11-07T07:29:23.031Z,7.30
2022-11-07T07:31:25.732Z,6.93
2022-11-07T07:33:52.831Z,8.10
2022-11-07T07:35:54.285Z,6.72
2022-11-07T07:38:21.222Z,6.40
2022-11-07T07:40:23.012Z,7.80
2022-11-07T07:42:24.643Z,8.15
2022-11-07T07:44:26.453Z,6.88
2022-11-07T07:46:28.136Z,6.85
2022-11-07T07:48:29.817Z,5.53
2022-11-07T07:50:31.308Z,8.13
2022-11-07T07:52:32.781Z,7.32
2022-11-07T07:54:34.181Z,8.35
2022-11-07T07:56:35.934Z,7.55
2022-11-07T07:58:38.964Z,7.15
2022-11-07T08:00:43.280Z,7.05
2022-11-07T08:02:44.950Z,8.38
2022-11-07T08:04:46.816Z,5.63
2022-11-07T08:06:48.514Z,6.80
2022-11-07T08:08:50.274Z,7.15
2022-11-07T08:10:54.962Z,6.90
2022-11-07T08:12:56.458Z,6.05
2022-11-07T08:14:57.941Z,8.27
2022-11-07T08:16:59.508Z,8.00
2022-11-07T08:19:00.985Z,8.00
2022-11-07T08:21:02.424Z,6.32
2022-11-07T08:23:31.172Z,9.73
2022-11-07T08:25:32.654Z,7.07
2022-11-07T08:27:34.105Z,5.75
2022-11-07T08:29:35.805Z,8.55
2022-11-07T08:31:37.258Z,6.47
2022-11-07T08:33:39.141Z,6.65
2022-11-07T08:35:42.656Z,6.80
2022-11-07T08:37:44.367Z,5.78
2022-11-07T08:39:45.923Z,6.63
2022-11-07T08:41:47.705Z,5.85
2022-11-07T08:43:49.351Z,5.78
2022-11-07T08:45:52.327Z,8.40
2022-11-07T08:47:59.841Z,7.05
2022-11-07T08:50:01.587Z,6.40
2022-11-07T08:52:03.381Z,7.43
2022-11-07T08:54:06.060Z,7.32
2022-11-07T08:56:08.937Z,5.85
2022-11-07T08:58:10.434Z,6.78
2022-11-07T09:00:12.314Z,7.22
2022-11-07T09:04:35.323Z,7.43
2022-11-07T09:06:36.806Z,8.88
2022-11-07T09:08:38.285Z,8.20
2022-11-07T09:10:39.747Z,7.53
2022-11-07T09:12:47.777Z,8.05
2022-11-07T09:14:49.369Z,8.15
2022-11-07T09:16:51.229Z,8.52
2022-11-07T09:18:52.658Z,6.07
2022-11-07T09:20:54.712Z,6.53
2022-11-07T09:22:58.697Z,8.48
2022-11-07T09:25:07.333Z,8.07
2022-11-07T09:27:16.497Z,7.78
2022-11-07T09:29:23.003Z,7.88
2022-11-07T09:31:27.056Z,6.90
2022-11-07T09:33:31.394Z,8.55
2022-11-07T09:35:35.746Z,7.10
2022-11-07T09:37:40.936Z,7.82
2022-11-07T09:39:51.845Z,8.48
2022-11-07T09:42:08.326Z,8.75
2022-11-07T09:44:37.463Z,9.23
2022-11-07T09:47:04.829Z,6.97
2022-11-07T09:49:29.513Z,9.07
2022-11-07T09:51:43.601Z,7.97
2022-11-07T09:53:59.441Z,9.10
2022-11-07T09:56:06.670Z,6.72
2022-11-07T09:58:31.437Z,7.30
2022-11-07T10:00:33.833Z,9.50
2022-11-07T10:02:38.158Z,6.75
2022-11-07T10:04:39.662Z,7.65
2022-11-07T10:06:46.578Z,9.15
2022-11-07T10:08:51.297Z,9.52
2022-11-07T10:10:58.741Z,10.30
2022-11-07T10:13:19.051Z,7.53
2022-11-07T10:15:26.675Z,8.20
2022-11-07T10:17:31.029Z,8.73
2022-11-07T10:19:40.404Z,9.63
2022-11-07T10:21:47.938Z,9.75
2022-11-07T10:23:49.665Z,8.65
2022-11-07T10:25:53.897Z,7.60
2022-11-07T10:29:58.241Z,7.18
2022-11-07T10:32:18.613Z,6.80
2022-11-07T10:34:26.009Z,8.50
2022-11-07T10:36:31.900Z,7.32
2022-11-07T10:38:35.042Z,7.63
2022-11-07T10:40:38.976Z,7.13
2022-11-07T10:42:40.608Z,8.55
2022-11-07T10:44:42.657Z,7.25
2022-11-07T10:46:47.688Z,6.88
2022-11-07T10:48:52.753Z,6.53
2022-11-07T10:50:54.618Z,5.75
2022-11-07T10:53:00.077Z,7.25
2022-11-07T10:55:19.904Z,4.05
2022-11-07T10:57:23.088Z,5.05
2022-11-07T10:59:34.551Z,5.78
2022-11-07T11:01:37.852Z,4.65
2022-11-07T11:03:47.002Z,3.72
2022-11-07T11:05:48.689Z,3.90
2022-11-07T11:07:50.511Z,3.00
2022-11-07T11:09:53.907Z,4.43
2022-11-07T11:11:55.392Z,3.28
2022-11-07T11:14:02.131Z,2.97
2022-11-07T11:16:11.466Z,3.85
2022-11-07T11:18:15.670Z,3.60
2022-11-07T11:20:27.984Z,4.75
2022-11-07T11:22:30.305Z,6.15
2022-11-07T11:24:37.584Z,6.07
2022-11-07T11:26:40.421Z,6.35
2022-11-07T11:28:43.773Z,5.72
2022-11-07T11:30:47.149Z,6.32
2022-11-07T11:32:48.554Z,9.07
2022-11-07T11:34:56.109Z,8.88
2022-11-07T11:37:02.884Z,8.93
2022-11-07T11:39:11.785Z,7.55
2022-11-07T11:41:13.226Z,7.65
2022-11-07T11:43:37.092Z,8.18
2022-11-07T11:45:47.854Z,11.13
2022-11-07T11:47:55.875Z,9.25
2022-11-07T11:50:16.295Z,8.93
2022-11-07T11:52:19.726Z,9.13
2022-11-07T11:54:21.437Z,8.65
2022-11-07T11:56:31.700Z,9.52
2022-11-07T11:58:51.752Z,9.43
2022-11-07T12:00:56.585Z,8.27
2022-11-07T12:03:17.362Z,8.85
2022-11-07T12:05:22.169Z,10.68
2022-11-07T12:07:35.567Z,8.30
2022-11-07T12:09:45.688Z,9.57
2022-11-07T12:11:54.713Z,9.30
2022-11-07T12:14:13.918Z,9.25
2022-11-07T12:16:21.224Z,9.23
2022-11-07T12:18:30.798Z,8.20
2022-11-07T12:20:51.762Z,7.70
2022-11-07T12:23:17.479Z,9.75
2022-11-07T12:25:32.433Z,9.15
2022-11-07T12:27:41.866Z,8.50
2022-11-07T12:30:00.511Z,8.23
2022-11-07T12:32:07.928Z,7.72
2022-11-07T12:34:13.668Z,9.40
2022-11-07T12:36:35.152Z,8.85
2022-11-07T12:38:37.975Z,10.50
2022-11-07T12:40:49.374Z,8.93
2022-11-07T12:42:59.803Z,11.73
2022-11-07T12:45:03.441Z,9.65
2022-11-07T12:47:16.000Z,8.65
2022-11-07T12:49:37.375Z,7.30
2022-11-07T12:52:15.432Z,10.23
2022-11-07T12:54:33.415Z,8.88
2022-11-07T12:56:36.780Z,10.00
2022-11-07T12:58:41.743Z,9.40
2022-11-07T13:00:45.621Z,7.63
2022-11-07T13:02:51.162Z,8.32
2022-11-07T13:04:58.359Z,8.80
2022-11-07T13:07:03.791Z,7.40
2022-11-07T13:09:17.512Z,10.65
2022-11-07T13:11:24.982Z,8.85
2022-11-07T13:13:29.425Z,8.35
2022-11-07T13:15:47.517Z,8.88
2022-11-07T13:17:52.839Z,8.48
2022-11-07T13:19:59.161Z,8.10
2022-11-07T13:22:00.557Z,8.52
2022-11-07T13:24:05.574Z,9.75
2022-11-07T13:26:32.499Z,7.85
2022-11-07T13:28:31.929Z,7.03
2022-11-07T13:30:37.836Z,9.63
2022-11-07T13:32:40.056Z,8.35
2022-11-07T13:34:59.993Z,8.23
2022-11-07T13:37:03.333Z,7.97
2022-11-07T13:39:06.272Z,6.23
2022-11-07T13:41:07.932Z,7.25
2022-11-07T13:43:12.482Z,7.05
2022-11-07T13:45:19.868Z,7.82
2022-11-07T13:47:24.446Z,6.85
2022-11-07T13:49:25.945Z,8.38
2022-11-07T13:51:48.558Z,6.82
2022-11-07T13:53:59.185Z,7.20
2022-11-07T13:56:02.276Z,7.43
2022-11-07T13:58:06.940Z,7.00
2022-11-07T14:00:14.510Z,7.07
2022-11-07T14:02:19.422Z,8.25
2022-11-07T14:04:21.589Z,9.18
2022-11-07T14:06:23.337Z,7.82
2022-11-07T14:08:32.545Z,6.60
2022-11-07T14:10:38.965Z,7.53
2022-11-07T14:12:40.602Z,6.82
2022-11-07T14:14:43.025Z,7.88
2022-11-07T14:16:45.529Z,7.10
2022-11-07T14:18:49.431Z,7.38
2022-11-07T14:20:53.422Z,7.43
2022-11-07T14:24:57.422Z,6.53
2022-11-07T14:27:04.143Z,6.50
2022-11-07T14:29:05.701Z,3.65
2022-11-07T14:31:27.480Z,5.05
2022-11-07T14:33:29.173Z,5.72
2022-11-07T14:35:35.272Z,3.63
2022-11-07T14:37:36.785Z,4.45
2022-11-07T14:39:38.560Z,4.10
2022-11-07T14:41:41.565Z,3.55
2022-11-07T14:43:43.695Z,3.78
2022-11-07T14:48:09.853Z,4.50
2022-11-07T14:50:19.635Z,4.00
2022-11-07T14:52:29.413Z,4.97
2022-11-07T14:54:33.326Z,4.95
2022-11-07T14:56:38.269Z,5.20
2022-11-07T14:58:40.046Z,3.22
2022-11-07T15:00:50.929Z,4.50
2022-11-07T15:02:54.202Z,4.32
2022-11-07T15:05:02.453Z,4.30
2022-11-07T15:07:16.690Z,5.40
2022-11-07T15:09:18.077Z,5.15
2022-11-07T15:11:44.773Z,5.53
2022-11-07T15:13:48.453Z,4.70
2022-11-07T15:15:59.340Z,4.32
2022-11-07T15:18:02.777Z,6.40
2022-11-07T15:20:07.060Z,5.03
2022-11-07T15:22:29.925Z,5.80
2022-11-07T15:24:34.861Z,5.80
2022-11-07T15:26:36.725Z,5.70
2022-11-07T15:28:46.673Z,5.22
2022-11-07T15:30:48.472Z,5.22
2022-11-07T15:32:50.278Z,7.35
2022-11-07T15:37:22.899Z,6.55
2022-11-07T15:39:27.395Z,5.53
2022-11-07T15:41:31.019Z,6.53
2022-11-07T15:43:34.602Z,5.70
2022-11-07T15:45:43.310Z,6.60
2022-11-07T15:47:49.417Z,4.57
2022-11-07T15:49:54.029Z,6.00
2022-11-07T15:51:57.336Z,6.40
2022-11-07T15:54:00.320Z,5.00
2022-11-07T15:56:06.149Z,6.18
2022-11-07T15:58:09.412Z,5.18
2022-11-07T16:00:21.957Z,4.30
2022-11-07T16:02:24.992Z,4.80
2022-11-07T16:04:27.736Z,5.30
2022-11-07T16:06:36.010Z,6.30
2022-11-07T16:08:38.759Z,5.20
2022-11-07T16:10:42.207Z,5.03
2022-11-07T16:12:44.134Z,7.43
2022-11-07T16:14:45.655Z,4.88
2022-11-07T16:16:48.107Z,4.68
2022-11-07T16:18:50.609Z,5.88
2022-11-07T16:20:52.405Z,6.68
2022-11-07T16:22:54.032Z,4.80
2022-11-07T16:24:56.774Z,6.35
2022-11-07T16:26:58.225Z,5.55
2022-11-07T16:29:00.004Z,6.53
2022-11-07T16:31:02.127Z,5.88
2022-11-07T16:33:03.629Z,5.30
2022-11-07T16:35:05.461Z,6.25
2022-11-07T16:37:06.963Z,7.32
2022-11-07T16:39:17.236Z,6.57
2022-11-07T16:41:19.081Z,8.18
2022-11-07T16:43:21.335Z,6.40
2022-11-07T16:45:22.773Z,5.63
2022-11-07T16:47:27.045Z,7.65
2022-11-07T16:49:32.041Z,5.93
2022-11-07T16:51:33.478Z,6.13
2022-11-07T16:53:35.063Z,5.50
2022-11-07T16:55:36.545Z,5.38
2022-11-07T16:57:38.393Z,5.40
2022-11-07T16:59:40.158Z,5.97
2022-11-07T17:01:41.703Z,7.60
2022-11-07T17:03:43.262Z,6.63
2022-11-07T17:05:44.856Z,7.38
2022-11-07T17:07:46.362Z,5.57
2022-11-07T17:09:48.438Z,6.47
2022-11-07T17:11:49.983Z,6.13
2022-11-07T17:13:51.707Z,6.10
2022-11-07T17:15:54.294Z,6.13
2022-11-07T17:17:59.862Z,5.50
2022-11-07T17:20:02.815Z,5.07
2022-11-07T17:22:05.174Z,6.63
2022-11-07T17:24:07.319Z,6.90
2022-11-07T17:26:09.632Z,4.97
2022-11-07T17:28:11.160Z,3.92
2022-11-07T17:30:16.321Z,6.68
2022-11-07T17:32:18.074Z,6.18
2022-11-07T17:34:19.991Z,4.60
2022-11-07T17:36:36.615Z,4.85
2022-11-07T17:38:38.949Z,5.45
2022-11-07T17:40:40.352Z,5.50
2022-11-07T17:42:41.787Z,5.03
2022-11-07T17:44:44.228Z,5.75
2022-11-07T17:46:47.457Z,7.35
2022-11-07T17:48:48.934Z,5.68
2022-11-07T17:50:53.568Z,4.85
2022-11-07T17:52:56.841Z,5.25
2022-11-07T17:54:58.618Z,4.83
2022-11-07T17:57:00.129Z,5.13
2022-11-07T17:59:04.220Z,4.88
2022-11-07T18:03:07.379Z,3.97
2022-11-07T18:05:12.988Z,4.65
2022-11-07T18:07:15.542Z,4.40
2022-11-07T18:09:17.657Z,5.05
2022-11-07T18:11:19.916Z,7.40
2022-11-07T18:13:21.401Z,4.72
2022-11-07T18:15:22.885Z,5.47
2022-11-07T18:17:24.615Z,5.07
2022-11-07T18:19:26.069Z,5.55
2022-11-07T18:21:27.885Z,4.82
2022-11-07T18:23:29.968Z,6.70
2022-11-07T18:25:31.525Z,4.95
2022-11-07T18:27:33.202Z,5.40
2022-11-07T18:29:34.639Z,4.60
2022-11-07T18:31:36.640Z,6.97
2022-11-07T18:33:38.769Z,5.85
2022-11-07T18:35:40.817Z,6.25
2022-11-07T18:37:44.521Z,4.50
2022-11-07T18:39:46.219Z,5.85
2022-11-07T18:41:53.263Z,6.07
2022-11-07T18:44:05.306Z,5.03
2022-11-07T18:46:14.837Z,5.60
2022-11-07T18:48:25.050Z,6.85
2022-11-07T18:50:36.067Z,4.63
2022-11-07T18:52:40.517Z,5.43
2022-11-07T18:54:50.700Z,5.45
2022-11-07T18:56:54.444Z,6.13
2022-11-07T18:59:02.828Z,5.13
2022-11-07T19:01:11.320Z,5.13
2022-11-07T19:03:14.737Z,4.20
2022-11-07T19:05:20.461Z,5.77
2022-11-07T19:07:26.580Z,4.80
2022-11-07T19:09:34.332Z,6.60
2022-11-07T19:11:37.553Z,5.70
2022-11-07T19:13:40.143Z,6.28
2022-11-07T19:15:42.176Z,7.85
2022-11-07T19:17:43.797Z,5.15
2022-11-07T19:19:45.179Z,5.72
2022-11-07T19:21:47.381Z,7.47
2022-11-07T19:23:50.091Z,7.10
2022-11-07T19:25:51.598Z,7.25
2022-11-07T19:27:53.071Z,5.47
2022-11-07T19:29:54.588Z,5.70
2022-11-07T19:31:56.025Z,7.65
2022-11-07T19:33:57.687Z,6.05
2022-11-07T19:36:04.506Z,5.32
2022-11-07T19:38:08.963Z,5.25
2022-11-07T19:40:10.927Z,5.63
2022-11-07T19:42:12.421Z,7.55
2022-11-07T19:44:13.980Z,6.00
2022-11-07T19:46:24.777Z,6.13
2022-11-07T19:48:26.534Z,7.00
2022-11-07T19:50:28.149Z,5.70
2022-11-07T19:52:29.706Z,5.93
2022-11-07T19:54:31.739Z,6.28
2022-11-07T19:56:33.269Z,5.45
2022-11-07T19:58:36.157Z,5.93
2022-11-07T20:00:37.766Z,5.40
2022-11-07T20:02:44.794Z,5.03
2022-11-07T20:04:46.934Z,4.85
2022-11-07T20:06:50.258Z,6.82
2022-11-07T20:08:51.788Z,4.43
2022-11-07T20:10:53.327Z,4.75
2022-11-07T20:12:55.654Z,4.88
2022-11-07T20:14:57.171Z,3.95
2022-11-07T20:16:59.088Z,5.20
2022-11-07T20:19:00.958Z,4.65
2022-11-07T20:21:04.684Z,6.18
2022-11-07T20:23:06.115Z,5.15
2022-11-07T20:25:08.762Z,5.53
2022-11-07T20:27:10.480Z,4.32
2022-11-07T20:29:14.000Z,5.57
2022-11-07T20:31:18.211Z,3.22
2022-11-07T20:33:20.444Z,3.85
2022-11-07T20:35:21.999Z,4.82
2022-11-07T20:37:23.943Z,4.40
2022-11-07T20:39:25.647Z,6.90
2022-11-07T20:41:27.456Z,4.43
2022-11-07T20:43:29.299Z,5.75
2022-11-07T20:45:30.745Z,4.80
2022-11-07T20:47:32.551Z,4.55
2022-11-07T20:49:34.156Z,4.35
2022-11-07T20:51:35.943Z,4.25
2022-11-07T20:53:38.225Z,3.75
2022-11-07T20:55:40.712Z,5.20
2022-11-07T20:57:43.940Z,4.45
2022-11-07T20:59:45.921Z,4.63
2022-11-07T21:01:50.818Z,4.35
2022-11-07T21:03:53.373Z,5.05
2022-11-07T21:05:54.789Z,4.75
2022-11-07T21:07:56.950Z,5.05
2022-11-07T21:09:59.221Z,4.90
2022-11-07T21:12:01.021Z,5.13
2022-11-07T21:14:02.824Z,4.88
2022-11-07T21:16:04.900Z,4.97
2022-11-07T21:18:06.712Z,4.50
2022-11-07T21:20:10.155Z,4.40
2022-11-07T21:22:12.113Z,5.82
2022-11-07T21:24:13.490Z,5.32
2022-11-07T21:26:17.071Z,5.25
2022-11-07T21:28:18.535Z,4.47
2022-11-07T21:30:20.492Z,4.28
2022-11-07T21:32:21.936Z,4.60
2022-11-07T21:34:23.742Z,3.38
2022-11-07T21:36:26.405Z,4.82
2022-11-07T21:38:27.897Z,4.50
2022-11-07T21:40:29.394Z,4.25
2022-11-07T21:42:31.194Z,3.45
2022-11-07T21:44:32.881Z,4.07
2022-11-07T21:46:39.633Z,4.35
2022-11-07T21:49:00.032Z,5.82
2022-11-07T21:51:10.306Z,4.82
2022-11-07T21:53:17.818Z,5.03
2022-11-07T21:55:26.935Z,4.75
2022-11-07T21:57:37.304Z,4.38
2022-11-07T21:59:42.908Z,3.70
2022-11-07T22:01:56.491Z,4.57
2022-11-07T22:04:09.372Z,4.10
2022-11-07T22:06:13.725Z,4.45
2022-11-07T22:08:21.073Z,4.05
2022-11-07T22:10:29.101Z,4.72
2022-11-07T22:12:35.491Z,3.45
2022-11-07T22:14:41.594Z,3.25
2022-11-07T22:16:49.973Z,3.58
2022-11-07T22:18:51.458Z,3.40
2022-11-07T22:20:56.103Z,3.15
2022-11-07T22:22:58.293Z,3.45
2022-11-07T22:24:59.867Z,3.30
2022-11-07T22:27:01.373Z,3.83
2022-11-07T22:29:03.117Z,2.50
2022-11-07T22:31:10.702Z,3.33
2022-11-07T22:33:12.254Z,3.95
2022-11-07T22:35:13.668Z,3.25
2022-11-07T22:37:15.055Z,3.45
2022-11-07T22:39:16.550Z,3.90
2022-11-07T22:41:22.040Z,3.63
2022-11-07T22:43:23.665Z,3.47
2022-11-07T22:45:25.118Z,3.35
2022-11-07T22:47:26.797Z,2.92
2022-11-07T22:49:28.249Z,2.20
2022-11-07T22:51:31.390Z,3.55
2022-11-07T22:53:33.076Z,3.35
2022-11-07T22:55:35.582Z,2.78
2022-11-07T22:57:37.036Z,2.25
2022-11-07T22:59:38.427Z,3.53
2022-11-07T23:01:41.533Z,2.78
2022-11-07T23:03:43.264Z,4.25
2022-11-07T23:05:44.837Z,3.78
2022-11-07T23:07:48.913Z,3.10
2022-11-07T23:09:50.327Z,4.22
2022-11-07T23:11:51.912Z,3.83
2022-11-07T23:14:00.350Z,3.00
2022-11-07T23:16:01.933Z,2.17
2022-11-07T23:18:03.622Z,2.90
2022-11-07T23:20:05.812Z,5.40
2022-11-07T23:22:07.265Z,2.63
2022-11-07T23:24:09.149Z,2.92
2022-11-07T23:26:13.027Z,1.83
2022-11-07T23:28:14.654Z,2.35
2022-11-07T23:30:16.632Z,2.95
2022-11-07T23:32:18.074Z,3.95
2022-11-07T23:34:20.177Z,2.85
2022-11-07T23:36:22.076Z,4.32
2022-11-07T23:38:25.293Z,3.38
2022-11-07T23:40:26.673Z,3.87
2022-11-07T23:42:28.059Z,2.65
2022-11-07T23:44:29.559Z,3.05
2022-11-07T23:46:50.054Z,3.10
2022-11-07T23:49:14.369Z,3.45
2022-11-07T23:51:16.413Z,3.33
2022-11-07T23:53:36.405Z,2.88
2022-11-07T23:55:41.146Z,2.15
2022-11-07T23:58:01.389Z,3.63
